Weather at Marathon Wasser Airport [CLOSED]

Public forecast

Using degrees Celsius for public forecast. Weather courtesy of forecast.io.

Closest aviation weather report (METAR) to Marathon Wasser Airport

Closest report is Eleftherios Venizelos International Airport, 12.9 nm (23.8 km) SSW. Retrieved 2021/04/17 10:50 UTC (23 minutes ago):

LGAV 171050Z 04018KT 9999 FEW030 18/10 Q1011 NOSIG

Closest aviation forecast (TAF) to Marathon Wasser Airport

Closest forecast is Eleftherios Venizelos International Airport, 12.9 nm (23.8 km) SSW. Retrieved 2021/04/17 06:12 UTC (5 hours ago):

TAF TAF LGAV 170500Z 1706/1806 02018KT 9999 SCT018 BKN070 PROB30 TEMPO 1706/1709 5000 RA SCT015 BKN030 BKN070 BECMG 1708/1710 SCT020